Time;durP1;ratioP1;P1;durP2;ratioP2;P2;SDS_P1;SDS_P2;PMS_P1;PMS_P2;Temp;Humidity;BMP_temperature;BMP_pressure;BME280_temperature;BME280_humidity;BME280_pressure;Samples;Min_cycle;Max_cycle;Signal;HPM_P1;HPM_P2
2023/10/16 00:01:21;;;;;;;;;;;;;;;14.25;nan;101726.41;4971186;28;19924;-90
2023/10/16 00:03:49;;;;;;;;;;;;;;;14.27;nan;101728.84;4974440;28;20375;-89
2023/10/16 00:06:17;;;;;;;;;;;;;;;14.23;nan;101733.94;4972837;28;20024;-90
2023/10/16 00:08:47;;;;;;;;;;;;;;;14.25;nan;101742.59;4969660;28;19926;-94
2023/10/16 00:11:16;;;;;;;;;;;;;;;14.18;nan;101736.53;4973624;28;19926;-88
2023/10/16 00:13:47;;;;;;;;;;;;;;;14.18;nan;101733.84;4973507;28;21307;-90
2023/10/16 00:16:33;;;;;;;;;;;;;;;14.11;nan;101736.72;4972284;28;20001;-91
2023/10/16 00:19:00;;;;;;;;;;;;;;;14.06;nan;101728.56;4970924;28;19938;-90
2023/10/16 00:21:30;;;;;;;;;;;;;;;14.04;nan;101735.28;4973000;28;19946;-92
2023/10/16 00:24:13;;;;;;;;;;;;;;;14.05;nan;101735.03;4976017;28;19924;-93
2023/10/16 00:26:49;;;;;;;;;;;;;;;14.08;nan;101731.81;4974132;28;19922;-93
2023/10/16 00:29:32;;;;;;;;;;;;;;;14.01;nan;101730.38;4973361;28;19921;-91
2023/10/16 00:32:00;;;;;;;;;;;;;;;13.95;nan;101737.56;4973205;28;19922;-90
2023/10/16 00:34:26;;;;;;;;;;;;;;;13.92;nan;101727.28;4970852;28;19926;-87
2023/10/16 00:36:53;;;;;;;;;;;;;;;13.88;nan;101728.84;4977260;28;19922;-88
2023/10/16 00:39:20;;;;;;;;;;;;;;;13.84;nan;101735.78;4976059;28;20097;-90
2023/10/16 00:41:52;;;;;;;;;;;;;;;13.85;nan;101734.72;4977626;28;19922;-88
2023/10/16 00:44:18;;;;;;;;;;;;;;;13.83;nan;101750.31;4977330;28;19918;-89
2023/10/16 00:46:48;;;;;;;;;;;;;;;13.80;nan;101746.19;4974029;28;19922;-90
2023/10/16 00:49:18;;;;;;;;;;;;;;;13.81;nan;101737.06;4971338;28;19926;-89
2023/10/16 00:51:46;;;;;;;;;;;;;;;13.84;nan;101743.84;4977753;28;19922;-89
2023/10/16 00:54:26;;;;;;;;;;;;;;;13.89;nan;101741.25;4974262;28;19980;-89
2023/10/16 00:56:57;;;;;;;;;;;;;;;13.85;nan;101737.41;4974499;28;20329;-90
2023/10/16 00:59:26;;;;;;;;;;;;;;;13.86;nan;101733.66;4972262;28;19924;-89
2023/10/16 01:02:05;;;;;;;;;;;;;;;13.89;nan;101736.66;4971861;28;20318;-88
2023/10/16 01:04:32;;;;;;;;;;;;;;;13.82;nan;101735.19;4976461;28;19964;-90
2023/10/16 01:07:06;;;;;;;;;;;;;;;13.76;nan;101736.16;4977279;28;19918;-90
2023/10/16 01:09:42;;;;;;;;;;;;;;;13.73;nan;101739.34;4974036;28;19926;-90
2023/10/16 01:12:22;;;;;;;;;;;;;;;13.65;nan;101747.84;4972605;28;20152;-90
2023/10/16 01:14:49;;;;;;;;;;;;;;;13.65;nan;101739.78;4975774;28;19968;-88
2023/10/16 01:17:29;;;;;;;;;;;;;;;13.64;nan;101757.78;4975757;28;19972;-90
2023/10/16 01:19:59;;;;;;;;;;;;;;;13.61;nan;101758.28;4970676;28;19922;-89
2023/10/16 01:22:29;;;;;;;;;;;;;;;13.60;nan;101759.34;4969885;28;19933;-90
2023/10/16 01:24:59;;;;;;;;;;;;;;;13.57;nan;101762.53;4973722;28;19918;-90
2023/10/16 01:27:32;;;;;;;;;;;;;;;13.54;nan;101763.81;4973405;28;19922;-91
2023/10/16 01:30:01;;;;;;;;;;;;;;;13.54;nan;101763.00;4972740;28;20472;-89
2023/10/16 01:32:31;;;;;;;;;;;;;;;13.56;nan;101761.72;4973702;28;19926;-93
2023/10/16 01:35:18;;;;;;;;;;;;;;;13.55;nan;101761.94;4976320;28;20445;-89
2023/10/16 01:37:46;;;;;;;;;;;;;;;13.45;nan;101757.19;4977315;28;19930;-89
2023/10/16 01:40:21;;;;;;;;;;;;;;;13.47;nan;101759.66;4975107;28;20087;-89
2023/10/16 01:42:53;;;;;;;;;;;;;;;13.49;nan;101765.63;4974814;28;19950;-89
2023/10/16 01:45:26;;;;;;;;;;;;;;;13.47;nan;101760.47;4978920;28;20317;-89
2023/10/16 01:48:04;;;;;;;;;;;;;;;13.43;nan;101770.09;4972648;28;19961;-90
2023/10/16 01:50:30;;;;;;;;;;;;;;;13.39;nan;101760.03;4973271;28;20018;-88
2023/10/16 01:52:58;;;;;;;;;;;;;;;13.35;nan;101759.72;4973886;28;19947;-88
2023/10/16 01:55:26;;;;;;;;;;;;;;;13.25;nan;101759.53;4972151;28;19958;-87
2023/10/16 01:58:03;;;;;;;;;;;;;;;13.27;nan;101757.41;4974563;28;20341;-90
2023/10/16 02:00:34;;;;;;;;;;;;;;;13.22;nan;101763.50;4972793;28;20020;-90
2023/10/16 02:03:08;;;;;;;;;;;;;;;13.22;nan;101760.81;4973694;28;19922;-89
2023/10/16 02:05:41;;;;;;;;;;;;;;;13.22;nan;101762.69;4973257;28;19929;-91
2023/10/16 02:08:12;;;;;;;;;;;;;;;13.22;nan;101760.81;4976263;28;19926;-90
2023/10/16 02:10:42;;;;;;;;;;;;;;;13.23;nan;101765.16;4979809;28;19918;-90
2023/10/16 02:13:10;;;;;;;;;;;;;;;13.24;nan;101756.00;4971153;28;19926;-91
2023/10/16 02:15:36;;;;;;;;;;;;;;;13.23;nan;101758.94;4972922;28;19929;-91
2023/10/16 02:18:18;;;;;;;;;;;;;;;13.22;nan;101766.22;4977836;28;19922;-90
2023/10/16 02:20:46;;;;;;;;;;;;;;;13.21;nan;101766.44;4971090;28;20005;-91
2023/10/16 02:23:30;;;;;;;;;;;;;;;13.20;nan;101768.31;4975006;28;19933;-91
2023/10/16 02:26:01;;;;;;;;;;;;;;;13.13;nan;101761.44;4974649;28;20314;-90
2023/10/16 02:28:31;;;;;;;;;;;;;;;13.10;nan;101751.94;4977043;28;19980;-91
2023/10/16 02:31:14;;;;;;;;;;;;;;;13.06;nan;101761.56;4974284;28;19929;-92
2023/10/16 02:34:12;;;;;;;;;;;;;;;13.07;nan;101757.81;4972830;28;19934;-93
2023/10/16 02:36:40;;;;;;;;;;;;;;;13.00;nan;101760.66;4972329;28;20366;-91
2023/10/16 02:39:09;;;;;;;;;;;;;;;12.99;nan;101759.03;4971884;28;20127;-90
2023/10/16 02:41:35;;;;;;;;;;;;;;;12.94;nan;101768.88;4976155;28;19922;-90
2023/10/16 02:44:12;;;;;;;;;;;;;;;12.90;nan;101767.69;4977663;28;19929;-90
2023/10/16 02:46:38;;;;;;;;;;;;;;;12.85;nan;101760.34;4971103;28;20375;-89
2023/10/16 02:49:10;;;;;;;;;;;;;;;12.87;nan;101757.41;4968906;28;19937;-91
2023/10/16 02:51:54;;;;;;;;;;;;;;;12.88;nan;101765.25;4972111;28;19926;-90
2023/10/16 02:54:22;;;;;;;;;;;;;;;12.90;nan;101759.63;4968406;28;19980;-91
2023/10/16 02:56:50;;;;;;;;;;;;;;;12.89;nan;101760.69;4973483;28;19925;-90
2023/10/16 02:59:18;;;;;;;;;;;;;;;12.91;nan;101767.44;4973371;28;20441;-92
2023/10/16 03:01:46;;;;;;;;;;;;;;;12.97;nan;101773.78;4973722;28;20394;-90
2023/10/16 03:04:15;;;;;;;;;;;;;;;12.96;nan;101778.34;4973484;28;19999;-89
2023/10/16 03:06:41;;;;;;;;;;;;;;;12.99;nan;101769.78;4970234;28;19918;-89
2023/10/16 03:09:25;;;;;;;;;;;;;;;13.01;nan;101786.50;4972062;28;19926;-90
2023/10/16 03:12:08;;;;;;;;;;;;;;;13.01;nan;101780.31;4973027;28;19926;-90
2023/10/16 03:14:58;;;;;;;;;;;;;;;12.97;nan;101779.97;4970735;28;19978;-90
2023/10/16 03:17:54;;;;;;;;;;;;;;;12.97;nan;101777.28;4970831;28;20366;-90
2023/10/16 03:20:23;;;;;;;;;;;;;;;13.02;nan;101781.94;4972447;28;19933;-92
2023/10/16 03:22:53;;;;;;;;;;;;;;;12.95;nan;101776.69;4970002;28;19965;-91
2023/10/16 03:25:25;;;;;;;;;;;;;;;12.92;nan;101774.47;4980341;28;19922;-90
2023/10/16 03:27:58;;;;;;;;;;;;;;;12.87;nan;101782.44;4971889;28;19973;-90
2023/10/16 03:30:30;;;;;;;;;;;;;;;12.87;nan;101785.13;4970388;28;20014;-90
2023/10/16 03:32:58;;;;;;;;;;;;;;;12.83;nan;101778.59;4974526;28;20016;-89
2023/10/16 03:35:31;;;;;;;;;;;;;;;12.86;nan;101772.72;4972633;28;19921;-89
2023/10/16 03:38:10;;;;;;;;;;;;;;;12.85;nan;101779.16;4969748;28;20012;-87
2023/10/16 03:40:44;;;;;;;;;;;;;;;12.85;nan;101771.09;4971871;28;19918;-89
2023/10/16 03:43:09;;;;;;;;;;;;;;;12.88;nan;101780.56;4970928;28;19965;-89
2023/10/16 03:45:39;;;;;;;;;;;;;;;12.90;nan;101773.88;4977240;28;19968;-89
2023/10/16 03:48:10;;;;;;;;;;;;;;;12.90;nan;101776.56;4976877;28;20354;-88
2023/10/16 03:50:42;;;;;;;;;;;;;;;12.96;nan;101769.44;4977911;28;19988;-89
2023/10/16 03:53:13;;;;;;;;;;;;;;;12.94;nan;101769.69;4977073;28;19929;-88
2023/10/16 03:55:48;;;;;;;;;;;;;;;12.97;nan;101771.06;4975769;28;19922;-89
2023/10/16 03:58:16;;;;;;;;;;;;;;;12.97;nan;101776.47;4976093;28;19934;-89
2023/10/16 04:00:58;;;;;;;;;;;;;;;12.95;nan;101768.63;4977056;28;19921;-88
2023/10/16 04:03:26;;;;;;;;;;;;;;;12.86;nan;101771.91;4974906;28;19969;-89
2023/10/16 04:05:54;;;;;;;;;;;;;;;12.81;nan;101769.94;4974602;28;19976;-90
2023/10/16 04:08:25;;;;;;;;;;;;;;;12.77;nan;101770.66;4977620;28;19946;-91
2023/10/16 04:10:58;;;;;;;;;;;;;;;12.75;nan;101770.91;4975870;28;20298;-90
2023/10/16 04:13:26;;;;;;;;;;;;;;;12.74;nan;101765.75;4975421;28;20094;-89
2023/10/16 04:16:30;;;;;;;;;;;;;;;12.64;nan;101774.44;4973296;28;19941;-89
2023/10/16 04:18:41;;;;;;;;;;;;;;;12.67;nan;101776.63;4979550;28;19991;-91
2023/10/16 04:31:45;;;;;;;;;;;;;;;12.71;nan;101773.22;4975166;28;20001;-91
2023/10/16 04:40:45;;;;;;;;;;;;;;;12.70;nan;101778.84;4975503;28;19969;-91
2023/10/16 04:43:19;;;;;;;;;;;;;;;12.71;nan;101784.00;4973320;28;19940;-92
2023/10/16 04:46:20;;;;;;;;;;;;;;;12.64;nan;101777.13;4974614;28;19929;-89
2023/10/16 04:48:51;;;;;;;;;;;;;;;12.66;nan;101788.44;4974736;28;20008;-90
2023/10/16 04:51:23;;;;;;;;;;;;;;;12.64;nan;101795.94;4974236;28;19922;-91
2023/10/16 04:53:59;;;;;;;;;;;;;;;12.59;nan;101777.03;4972138;28;19926;-91
2023/10/16 04:56:57;;;;;;;;;;;;;;;12.62;nan;101781.91;4981172;28;19952;-90
2023/10/16 05:05:29;;;;;;;;;;;;;;;12.58;nan;101778.88;4974930;28;20013;-90
2023/10/16 05:07:54;;;;;;;;;;;;;;;12.60;nan;101786.72;4972640;28;20024;-90
2023/10/16 05:18:46;;;;;;;;;;;;;;;12.39;nan;101786.28;4975204;28;19925;-88
2023/10/16 06:16:17;;;;;;;;;;;;;;;12.32;nan;101836.63;4972530;28;19937;-90
2023/10/16 06:18:45;;;;;;;;;;;;;;;12.38;nan;101838.34;4970447;28;20196;-90
2023/10/16 06:21:14;;;;;;;;;;;;;;;12.43;nan;101834.19;4970757;28;19919;-90
2023/10/16 06:23:52;;;;;;;;;;;;;;;12.51;nan;101840.00;4975545;28;19992;-92
2023/10/16 06:26:21;;;;;;;;;;;;;;;12.52;nan;101830.88;4974798;28;19976;-93
2023/10/16 06:28:49;;;;;;;;;;;;;;;12.54;nan;101836.84;4974388;28;19918;-94
2023/10/16 06:31:25;;;;;;;;;;;;;;;12.50;nan;101824.94;4975363;28;19977;-95
2023/10/16 06:33:58;;;;;;;;;;;;;;;12.56;nan;101833.91;4972131;28;19926;-94
2023/10/16 06:36:51;;;;;;;;;;;;;;;12.65;nan;101836.03;4973818;28;20381;-95
2023/10/16 06:39:37;;;;;;;;;;;;;;;12.75;nan;101839.97;4969846;28;19972;-91
2023/10/16 06:42:04;;;;;;;;;;;;;;;12.73;nan;101842.91;4970587;28;19965;-90
2023/10/16 06:44:50;;;;;;;;;;;;;;;12.76;nan;101841.66;4973972;28;19972;-90
2023/10/16 06:47:23;;;;;;;;;;;;;;;12.79;nan;101841.16;4977283;28;19921;-89
2023/10/16 06:49:56;;;;;;;;;;;;;;;12.89;nan;101847.56;4977253;28;19926;-90
2023/10/16 06:52:22;;;;;;;;;;;;;;;12.87;nan;101838.09;4975678;28;19965;-90
2023/10/16 06:54:48;;;;;;;;;;;;;;;12.90;nan;101840.31;4976004;28;20251;-90
2023/10/16 06:57:25;;;;;;;;;;;;;;;12.96;nan;101845.59;4973673;28;19922;-90
2023/10/16 06:59:50;;;;;;;;;;;;;;;13.03;nan;101848.13;4969750;28;20020;-90
2023/10/16 07:02:19;;;;;;;;;;;;;;;13.14;nan;101858.06;4974285;28;19953;-89
2023/10/16 07:04:53;;;;;;;;;;;;;;;13.15;nan;101866.94;4969903;28;19924;-90
2023/10/16 07:07:22;;;;;;;;;;;;;;;13.16;nan;101866.72;4973550;28;20401;-91
2023/10/16 07:09:48;;;;;;;;;;;;;;;13.17;nan;101870.22;4971693;28;19919;-90
2023/10/16 07:12:18;;;;;;;;;;;;;;;13.17;nan;101864.84;4972838;28;19925;-91
2023/10/16 07:14:57;;;;;;;;;;;;;;;13.15;nan;101858.88;4969161;28;19937;-91
2023/10/16 07:17:28;;;;;;;;;;;;;;;13.11;nan;101855.03;4970939;28;19961;-89
2023/10/16 07:20:00;;;;;;;;;;;;;;;13.07;nan;101856.53;4974006;28;20449;-89
2023/10/16 07:22:31;;;;;;;;;;;;;;;13.04;nan;101855.16;4974257;28;19941;-89
2023/10/16 07:27:59;;;;;;;;;;;;;;;13.06;nan;101862.97;4977076;28;20400;-92
2023/10/16 07:30:33;;;;;;;;;;;;;;;12.96;nan;101867.09;4978682;28;19926;-90
2023/10/16 07:33:01;;;;;;;;;;;;;;;12.96;nan;101869.78;4974113;28;20018;-91
2023/10/16 07:35:27;;;;;;;;;;;;;;;13.01;nan;101867.19;4975824;28;21329;-89
2023/10/16 07:37:54;;;;;;;;;;;;;;;13.10;nan;101867.63;4978002;28;19918;-91
2023/10/16 07:40:29;;;;;;;;;;;;;;;13.19;nan;101863.56;4981811;28;19937;-89
2023/10/16 07:42:54;;;;;;;;;;;;;;;13.30;nan;101864.59;4977454;28;19921;-90
2023/10/16 07:45:26;;;;;;;;;;;;;;;13.43;nan;101860.78;4975771;28;19926;-92
2023/10/16 07:47:52;;;;;;;;;;;;;;;13.50;nan;101870.38;4974179;28;19968;-90
2023/10/16 07:50:19;;;;;;;;;;;;;;;13.60;nan;101865.16;4960646;28;19941;-90
2023/10/16 07:52:46;;;;;;;;;;;;;;;13.74;nan;101873.78;4975063;28;19922;-91
2023/10/16 07:55:18;;;;;;;;;;;;;;;13.89;nan;101874.06;4977830;28;19961;-90
2023/10/16 07:57:46;;;;;;;;;;;;;;;13.94;nan;101876.03;4978994;28;20515;-95
2023/10/16 08:00:41;;;;;;;;;;;;;;;13.82;nan;101881.50;4979631;28;19928;-89
2023/10/16 08:03:13;;;;;;;;;;;;;;;13.81;nan;101884.41;4976978;28;19918;-92
2023/10/16 08:05:52;;;;;;;;;;;;;;;13.89;nan;101881.31;4976607;28;19937;-91
2023/10/16 08:08:25;;;;;;;;;;;;;;;13.89;nan;101884.03;4973855;28;19947;-95
2023/10/16 08:10:59;;;;;;;;;;;;;;;13.89;nan;101878.63;4974750;28;20604;-93
2023/10/16 08:13:35;;;;;;;;;;;;;;;13.90;nan;101874.88;4973091;28;19969;-93
2023/10/16 08:16:06;;;;;;;;;;;;;;;13.98;nan;101879.03;4977838;28;19922;-91
2023/10/16 08:18:32;;;;;;;;;;;;;;;14.02;nan;101885.59;4975467;28;19918;-90
2023/10/16 08:21:06;;;;;;;;;;;;;;;14.11;nan;101884.94;4975031;28;20021;-91
2023/10/16 08:23:34;;;;;;;;;;;;;;;14.20;nan;101879.97;4974011;28;20145;-90
2023/10/16 08:26:14;;;;;;;;;;;;;;;14.20;nan;101890.75;4974893;28;19922;-93
2023/10/16 08:28:45;;;;;;;;;;;;;;;14.20;nan;101888.88;4974878;28;19918;-91
2023/10/16 08:31:22;;;;;;;;;;;;;;;14.28;nan;101882.25;4975211;28;19930;-92
2023/10/16 08:33:49;;;;;;;;;;;;;;;14.35;nan;101882.91;4972394;28;20082;-92
2023/10/16 08:36:20;;;;;;;;;;;;;;;14.36;nan;101884.56;4976235;28;20073;-88
2023/10/16 08:39:07;;;;;;;;;;;;;;;14.42;nan;101888.16;4975197;28;19921;-89
2023/10/16 08:41:42;;;;;;;;;;;;;;;14.43;nan;101887.09;4974654;28;19972;-93
2023/10/16 08:44:18;;;;;;;;;;;;;;;14.48;nan;101900.66;4978151;28;20017;-95
2023/10/16 08:49:25;;;;;;;;;;;;;;;14.51;nan;101897.47;4976244;28;19933;-93
2023/10/16 08:52:08;;;;;;;;;;;;;;;14.51;nan;101889.38;4979935;28;19917;-93
2023/10/16 08:57:25;;;;;;;;;;;;;;;14.68;nan;101884.78;4973380;28;19936;-92
2023/10/16 08:59:57;;;;;;;;;;;;;;;14.69;nan;101886.41;4977774;28;19965;-93
2023/10/16 09:02:25;;;;;;;;;;;;;;;14.68;nan;101892.06;4979564;28;19975;-93
2023/10/16 09:04:55;;;;;;;;;;;;;;;14.75;nan;101887.31;4975235;28;20024;-92
2023/10/16 09:07:24;;;;;;;;;;;;;;;14.83;nan;101886.91;4972801;28;19925;-92
2023/10/16 09:09:53;;;;;;;;;;;;;;;14.91;nan;101896.47;4977105;28;20321;-92
2023/10/16 09:12:28;;;;;;;;;;;;;;;15.03;nan;101905.25;4977474;28;20021;-89
2023/10/16 09:15:05;;;;;;;;;;;;;;;15.06;nan;101910.13;4976114;28;20440;-90
2023/10/16 09:17:32;;;;;;;;;;;;;;;15.08;nan;101902.59;4981729;28;19929;-90
2023/10/16 09:20:01;;;;;;;;;;;;;;;15.13;nan;101904.56;4976191;28;19973;-92
2023/10/16 09:22:39;;;;;;;;;;;;;;;15.25;nan;101908.75;4979218;28;19917;-91
2023/10/16 09:25:08;;;;;;;;;;;;;;;15.45;nan;101907.41;4979817;28;19918;-93
2023/10/16 09:27:37;;;;;;;;;;;;;;;15.55;nan;101918.31;4976558;28;20408;-90
2023/10/16 09:30:17;;;;;;;;;;;;;;;15.71;nan;101912.03;4980439;28;19983;-91
2023/10/16 09:32:44;;;;;;;;;;;;;;;15.92;nan;101916.59;4981599;28;20398;-89
2023/10/16 09:35:30;;;;;;;;;;;;;;;16.14;nan;101918.41;4978598;28;19991;-94
2023/10/16 09:38:18;;;;;;;;;;;;;;;16.24;nan;101918.50;4978229;28;19918;-90
2023/10/16 09:41:37;;;;;;;;;;;;;;;16.25;nan;101920.94;4980292;28;19926;-92
2023/10/16 09:43:42;;;;;;;;;;;;;;;16.21;nan;101921.72;4977465;28;20436;-91
2023/10/16 09:49:13;;;;;;;;;;;;;;;16.13;nan;101933.00;4994769;28;19927;-89
2023/10/16 09:51:40;;;;;;;;;;;;;;;16.18;nan;101930.38;4978199;28;19964;-94
2023/10/16 09:54:09;;;;;;;;;;;;;;;16.17;nan;101929.53;4977488;28;19941;-91
2023/10/16 09:57:00;;;;;;;;;;;;;;;16.26;nan;101935.28;4980311;28;19917;-92
2023/10/16 09:59:32;;;;;;;;;;;;;;;16.34;nan;101932.13;4975130;28;19925;-95
2023/10/16 10:02:35;;;;;;;;;;;;;;;16.46;nan;101930.03;4984184;28;19925;-94
2023/10/16 10:05:09;;;;;;;;;;;;;;;16.54;nan;101937.69;4975091;28;19921;-92
2023/10/16 10:07:46;;;;;;;;;;;;;;;16.59;nan;101917.97;4981656;28;19976;-93
2023/10/16 10:13:03;;;;;;;;;;;;;;;16.61;nan;101945.59;4987393;28;19926;-91
2023/10/16 10:15:35;;;;;;;;;;;;;;;16.65;nan;101938.56;4975711;28;19968;-91
2023/10/16 10:20:58;;;;;;;;;;;;;;;16.78;nan;101937.34;4976495;28;19932;-89
2023/10/16 10:23:25;;;;;;;;;;;;;;;16.80;nan;101929.78;4982152;28;19928;-91
2023/10/16 10:25:53;;;;;;;;;;;;;;;16.80;nan;101929.78;4977809;28;20001;-93
2023/10/16 10:28:32;;;;;;;;;;;;;;;16.84;nan;101937.13;4977042;28;20001;-90
2023/10/16 10:31:04;;;;;;;;;;;;;;;16.85;nan;101949.56;4978772;28;19921;-92
2023/10/16 10:33:51;;;;;;;;;;;;;;;16.84;nan;101939.00;4973861;28;19926;-92
2023/10/16 10:36:36;;;;;;;;;;;;;;;16.77;nan;101941.94;4981017;28;19917;-91
2023/10/16 10:39:21;;;;;;;;;;;;;;;16.85;nan;101940.63;4974797;28;20021;-91
2023/10/16 10:41:54;;;;;;;;;;;;;;;16.78;nan;101935.47;4976111;28;19921;-91
2023/10/16 10:44:29;;;;;;;;;;;;;;;16.83;nan;101942.78;4980787;28;19933;-93
2023/10/16 10:47:06;;;;;;;;;;;;;;;16.84;nan;101939.00;4987137;28;19976;-94
2023/10/16 10:49:37;;;;;;;;;;;;;;;16.89;nan;101929.03;4976303;28;20393;-94
2023/10/16 10:52:06;;;;;;;;;;;;;;;17.05;nan;101942.66;4974016;28;19922;-91
2023/10/16 10:54:42;;;;;;;;;;;;;;;17.18;nan;101934.88;4979277;28;19996;-90
2023/10/16 10:57:19;;;;;;;;;;;;;;;17.26;nan;101935.47;4974210;28;20302;-91
2023/10/16 10:59:48;;;;;;;;;;;;;;;17.30;nan;101929.25;4977699;28;20061;-90
2023/10/16 11:04:53;;;;;;;;;;;;;;;17.33;nan;101936.03;4978945;28;20518;-92
2023/10/16 11:07:25;;;;;;;;;;;;;;;17.41;nan;101938.22;4968621;28;19925;-93
2023/10/16 11:09:52;;;;;;;;;;;;;;;17.45;nan;101937.44;4977501;28;20366;-95
2023/10/16 11:12:24;;;;;;;;;;;;;;;17.47;nan;101940.72;4981057;28;19930;-93
2023/10/16 11:14:51;;;;;;;;;;;;;;;17.55;nan;101935.84;4976024;28;19926;-92
2023/10/16 11:17:30;;;;;;;;;;;;;;;17.55;nan;101922.28;4973164;28;19922;-91
2023/10/16 11:19:56;;;;;;;;;;;;;;;17.54;nan;101929.59;4974911;28;19918;-90
2023/10/16 11:22:27;;;;;;;;;;;;;;;17.61;nan;101926.66;4975593;28;19944;-90
2023/10/16 11:24:56;;;;;;;;;;;;;;;17.69;nan;101926.97;4980558;28;19934;-91
2023/10/16 11:27:24;;;;;;;;;;;;;;;17.69;nan;101932.41;4973352;28;19922;-89
2023/10/16 11:29:52;;;;;;;;;;;;;;;17.66;nan;101932.09;4978343;28;20259;-93
2023/10/16 11:32:23;;;;;;;;;;;;;;;17.60;nan;101935.88;4983219;28;19922;-92
2023/10/16 11:35:00;;;;;;;;;;;;;;;17.61;nan;101935.63;4974126;28;19926;-91
2023/10/16 11:37:25;;;;;;;;;;;;;;;17.69;nan;101934.31;4979035;28;20386;-91
2023/10/16 11:39:50;;;;;;;;;;;;;;;17.72;nan;101942.72;4975100;28;19925;-91
2023/10/16 11:42:17;;;;;;;;;;;;;;;17.62;nan;101948.06;4976293;28;20020;-91
2023/10/16 11:44:44;;;;;;;;;;;;;;;17.55;nan;101952.09;4973001;28;19922;-90
2023/10/16 11:47:18;;;;;;;;;;;;;;;17.54;nan;101945.88;4976161;28;20303;-93
2023/10/16 11:49:54;;;;;;;;;;;;;;;17.58;nan;101946.97;4972584;28;20013;-92
2023/10/16 11:52:27;;;;;;;;;;;;;;;17.72;nan;101937.28;4974735;28;20443;-91
2023/10/16 11:55:07;;;;;;;;;;;;;;;17.93;nan;101943.56;4973790;28;19958;-90
2023/10/16 11:57:44;;;;;;;;;;;;;;;17.92;nan;101938.41;4975076;28;19922;-93
2023/10/16 12:00:15;;;;;;;;;;;;;;;17.89;nan;101936.25;4973774;28;19928;-92
2023/10/16 12:02:41;;;;;;;;;;;;;;;17.83;nan;101937.31;4973815;28;19961;-91
2023/10/16 12:05:07;;;;;;;;;;;;;;;17.83;nan;101948.16;4973666;28;19972;-92
2023/10/16 12:07:33;;;;;;;;;;;;;;;17.83;nan;101942.75;4973764;28;19930;-93
2023/10/16 12:10:05;;;;;;;;;;;;;;;17.82;nan;101941.94;4979004;28;19973;-92
2023/10/16 12:12:33;;;;;;;;;;;;;;;17.81;nan;101932.16;4977325;28;19921;-93
2023/10/16 12:15:04;;;;;;;;;;;;;;;17.78;nan;101941.66;4977223;28;19922;-91
2023/10/16 12:17:30;;;;;;;;;;;;;;;17.77;nan;101939.19;4978159;28;19922;-91
2023/10/16 12:19:57;;;;;;;;;;;;;;;17.78;nan;101936.25;4976113;28;20392;-91
2023/10/16 12:22:27;;;;;;;;;;;;;;;17.74;nan;101940.53;4977421;28;19918;-92
2023/10/16 12:24:56;;;;;;;;;;;;;;;17.73;nan;101941.63;4979780;28;19950;-92
2023/10/16 12:27:22;;;;;;;;;;;;;;;17.83;nan;101937.31;4978744;28;19926;-91
2023/10/16 12:29:53;;;;;;;;;;;;;;;18.01;nan;101944.94;4980481;28;20017;-92
2023/10/16 12:32:20;;;;;;;;;;;;;;;18.03;nan;101938.19;4981676;28;20333;-94
2023/10/16 12:34:49;;;;;;;;;;;;;;;18.07;nan;101933.03;4974305;28;20009;-93
2023/10/16 12:37:22;;;;;;;;;;;;;;;18.14;nan;101939.00;4978817;28;19926;-93
2023/10/16 12:39:52;;;;;;;;;;;;;;;18.17;nan;101943.91;4979809;28;19918;-93
2023/10/16 12:42:18;;;;;;;;;;;;;;;18.23;nan;101934.66;4976107;28;20025;-91
2023/10/16 12:44:44;;;;;;;;;;;;;;;18.24;nan;101933.56;4978223;28;20555;-91
2023/10/16 12:47:12;;;;;;;;;;;;;;;18.27;nan;101935.75;4981034;28;20085;-91
2023/10/16 12:49:37;;;;;;;;;;;;;;;18.27;nan;101930.31;4967016;28;19961;-91
2023/10/16 12:52:02;;;;;;;;;;;;;;;18.27;nan;101929.50;4977998;28;19961;-92
2023/10/16 12:54:32;;;;;;;;;;;;;;;18.30;nan;101929.78;4979303;28;20290;-92
2023/10/16 12:56:59;;;;;;;;;;;;;;;18.32;nan;101924.09;4977880;28;19980;-91
2023/10/16 12:59:36;;;;;;;;;;;;;;;18.40;nan;101921.66;4977820;28;19934;-93
2023/10/16 13:02:04;;;;;;;;;;;;;;;18.57;nan;101925.97;4975322;28;19926;-95
2023/10/16 13:04:33;;;;;;;;;;;;;;;18.80;nan;101922.72;4972691;28;20013;-93
2023/10/16 13:07:00;;;;;;;;;;;;;;;19.09;nan;101927.53;4979270;28;19926;-93
2023/10/16 13:09:25;;;;;;;;;;;;;;;19.34;nan;101919.28;4970388;28;19926;-94
2023/10/16 13:11:52;;;;;;;;;;;;;;;19.46;nan;101918.97;4971569;28;20375;-95
2023/10/16 13:14:21;;;;;;;;;;;;;;;19.63;nan;101910.50;4973959;28;20389;-93
2023/10/16 13:16:53;;;;;;;;;;;;;;;19.72;nan;101912.31;4973386;28;19937;-95
2023/10/16 13:19:18;;;;;;;;;;;;;;;19.91;nan;101918.72;4966306;28;19926;-93
2023/10/16 13:21:51;;;;;;;;;;;;;;;20.03;nan;101918.38;4974256;28;20638;-94
2023/10/16 13:24:19;;;;;;;;;;;;;;;20.13;nan;101929.22;4983642;28;19965;-95
2023/10/16 13:26:54;;;;;;;;;;;;;;;20.29;nan;101919.03;4974863;28;20444;-92
2023/10/16 13:29:21;;;;;;;;;;;;;;;20.34;nan;101920.88;4980255;28;19934;-94
2023/10/16 13:31:53;;;;;;;;;;;;;;;20.40;nan;101928.69;4975141;28;19933;-92
2023/10/16 13:34:28;;;;;;;;;;;;;;;20.30;nan;101922.56;4973119;28;19970;-94
2023/10/16 13:37:11;;;;;;;;;;;;;;;20.08;nan;101931.94;4981472;28;19926;-95
2023/10/16 13:39:40;;;;;;;;;;;;;;;19.83;nan;101927.50;4979397;28;19965;-94
2023/10/16 13:42:10;;;;;;;;;;;;;;;19.76;nan;101937.88;4978119;28;19924;-94
2023/10/16 13:44:54;;;;;;;;;;;;;;;19.64;nan;101928.44;4978592;28;19922;-93
2023/10/16 13:47:20;;;;;;;;;;;;;;;19.48;nan;101933.09;4981661;28;19917;-92
2023/10/16 13:49:50;;;;;;;;;;;;;;;19.31;nan;101931.53;4984732;28;19922;-92
2023/10/16 13:52:18;;;;;;;;;;;;;;;19.25;nan;101935.38;4981216;28;19922;-93
2023/10/16 13:54:50;;;;;;;;;;;;;;;19.19;nan;101939.16;4977673;28;19930;-92
2023/10/16 13:57:28;;;;;;;;;;;;;;;19.18;nan;101934.00;4978498;28;20051;-93
2023/10/16 14:00:03;;;;;;;;;;;;;;;19.07;nan;101940.59;4971667;28;19922;-91
2023/10/16 14:02:34;;;;;;;;;;;;;;;19.01;nan;101948.72;4977666;28;19928;-91
2023/10/16 14:04:59;;;;;;;;;;;;;;;18.92;nan;101960.44;4970776;28;19921;-90
2023/10/16 14:07:25;;;;;;;;;;;;;;;18.73;nan;101968.34;4977801;28;20407;-88
2023/10/16 14:09:52;;;;;;;;;;;;;;;18.68;nan;101968.38;4976747;28;19918;-89
2023/10/16 14:12:25;;;;;;;;;;;;;;;18.65;nan;101968.88;4981749;28;20016;-90
2023/10/16 14:14:51;;;;;;;;;;;;;;;18.54;nan;101968.06;4978015;28;19933;-89
2023/10/16 14:17:18;;;;;;;;;;;;;;;18.50;nan;101966.97;4977492;28;19922;-89
2023/10/16 14:20:34;;;;;;;;;;;;;;;18.46;nan;101973.19;4979289;28;19922;-96
2023/10/16 14:23:01;;;;;;;;;;;;;;;18.40;nan;101981.34;4977028;28;20379;-92
2023/10/16 14:25:32;;;;;;;;;;;;;;;18.40;nan;101973.19;4974621;28;19918;-92
2023/10/16 14:30:46;;;;;;;;;;;;;;;18.22;nan;101981.88;4979153;28;19936;-92
2023/10/16 14:33:14;;;;;;;;;;;;;;;18.13;nan;101983.47;4971039;28;20414;-90
2023/10/16 14:35:39;;;;;;;;;;;;;;;18.00;nan;101986.72;4980087;28;19997;-90
2023/10/16 14:38:07;;;;;;;;;;;;;;;17.94;nan;101987.75;4982107;28;20436;-89
2023/10/16 14:40:42;;;;;;;;;;;;;;;17.92;nan;101979.09;4981333;28;19926;-90
2023/10/16 14:43:08;;;;;;;;;;;;;;;17.91;nan;101974.75;4970762;28;20006;-91
2023/10/16 14:45:37;;;;;;;;;;;;;;;17.92;nan;101973.66;4973785;28;19926;-91
2023/10/16 14:48:03;;;;;;;;;;;;;;;17.96;nan;101977.50;4972853;28;20290;-91
2023/10/16 14:50:32;;;;;;;;;;;;;;;18.00;nan;101982.09;4971913;28;20008;-91
2023/10/16 14:53:02;;;;;;;;;;;;;;;18.03;nan;101978.03;4971566;28;20086;-92
2023/10/16 14:55:30;;;;;;;;;;;;;;;18.05;nan;101979.41;4973205;28;19921;-90
2023/10/16 14:57:55;;;;;;;;;;;;;;;18.05;nan;101984.81;4964074;28;19926;-90
2023/10/16 15:00:27;;;;;;;;;;;;;;;18.03;nan;101986.16;4975535;28;19933;-92
2023/10/16 15:02:53;;;;;;;;;;;;;;;18.01;nan;101988.34;4974159;28;20057;-92
2023/10/16 15:05:24;;;;;;;;;;;;;;;18.03;nan;101986.16;4972401;28;19929;-91
2023/10/16 15:07:51;;;;;;;;;;;;;;;18.04;nan;101985.09;4975026;28;19929;-91
2023/10/16 15:10:18;;;;;;;;;;;;;;;18.02;nan;101990.78;4968725;28;19922;-91
2023/10/16 15:12:51;;;;;;;;;;;;;;;18.01;nan;101994.56;4972695;28;20065;-91